createdAt,value
2019-01-27T00:00:51.109Z,29.07
2019-01-27T00:03:18.627Z,29.15
2019-01-27T00:05:46.113Z,29.09
2019-01-27T00:08:13.880Z,29.09
2019-01-27T00:10:41.449Z,29.10
2019-01-27T00:13:08.958Z,29.11
2019-01-27T00:15:36.481Z,29.10
2019-01-27T00:18:03.996Z,29.11
2019-01-27T00:20:31.482Z,29.05
2019-01-27T00:22:58.994Z,29.06
2019-01-27T00:25:26.500Z,29.07
2019-01-27T00:27:54.048Z,29.07
2019-01-27T00:30:22.213Z,29.08
2019-01-27T00:32:49.697Z,29.06
2019-01-27T00:35:17.213Z,29.09
2019-01-27T00:37:44.903Z,29.06
2019-01-27T00:40:13.292Z,29.11
2019-01-27T00:42:41.165Z,29.13
2019-01-27T00:45:10.457Z,29.15
2019-01-27T00:47:37.958Z,29.11
2019-01-27T00:50:06.855Z,29.10
2019-01-27T00:52:34.547Z,29.13
2019-01-27T00:55:02.043Z,29.10
2019-01-27T00:57:29.583Z,29.14
2019-01-27T00:59:57.085Z,29.13
2019-01-27T01:02:24.596Z,29.14
2019-01-27T01:04:52.103Z,29.20
2019-01-27T01:07:19.617Z,29.20
2019-01-27T01:09:47.134Z,29.15
2019-01-27T01:12:14.651Z,29.17
2019-01-27T01:14:42.136Z,29.14
2019-01-27T01:17:09.668Z,29.17
2019-01-27T01:19:37.168Z,29.19
2019-01-27T01:22:04.691Z,29.18
2019-01-27T01:24:32.209Z,29.16
2019-01-27T01:26:59.714Z,29.16
2019-01-27T01:29:27.240Z,29.22
2019-01-27T01:31:54.734Z,29.19
2019-01-27T01:34:22.253Z,29.11
2019-01-27T01:36:49.777Z,29.18
2019-01-27T01:39:17.289Z,29.15
2019-01-27T01:41:44.802Z,29.19
2019-01-27T01:44:12.334Z,29.13
2019-01-27T01:46:39.865Z,29.16
2019-01-27T01:49:07.370Z,29.13
2019-01-27T01:51:34.880Z,29.12
2019-01-27T01:54:02.384Z,29.24
2019-01-27T01:56:29.891Z,29.19
2019-01-27T01:58:57.422Z,29.24
2019-01-27T02:01:24.940Z,29.16
2019-01-27T02:03:52.457Z,29.21
2019-01-27T02:06:19.970Z,29.21
2019-01-27T02:08:47.495Z,29.22
2019-01-27T02:11:14.990Z,29.25
2019-01-27T02:13:42.536Z,29.19
2019-01-27T02:16:10.031Z,29.20
2019-01-27T02:18:37.534Z,29.19
2019-01-27T02:21:05.037Z,29.20
2019-01-27T02:23:32.570Z,29.16
2019-01-27T02:26:00.102Z,29.19
2019-01-27T02:28:27.602Z,29.17
2019-01-27T02:30:55.109Z,29.24
2019-01-27T02:33:22.633Z,29.25
2019-01-27T02:35:50.126Z,29.21
2019-01-27T02:38:17.656Z,29.22
2019-01-27T02:40:45.168Z,29.21
2019-01-27T02:43:12.678Z,29.14
2019-01-27T02:45:40.192Z,29.23
2019-01-27T02:48:07.731Z,29.19
2019-01-27T02:50:35.245Z,29.29
2019-01-27T02:53:02.759Z,29.30
2019-01-27T02:55:30.269Z,29.25
2019-01-27T02:57:57.768Z,29.21
2019-01-27T03:00:25.274Z,29.29
2019-01-27T03:02:52.803Z,29.33
2019-01-27T03:05:34.206Z,29.27
2019-01-27T03:08:01.725Z,29.26
2019-01-27T03:10:29.232Z,29.22
2019-01-27T03:12:56.751Z,29.25
2019-01-27T03:15:24.274Z,29.32
2019-01-27T03:17:51.794Z,29.33
2019-01-27T03:20:19.331Z,29.28
2019-01-27T03:22:46.853Z,29.28
2019-01-27T03:25:15.235Z,29.30
2019-01-27T03:27:42.737Z,29.24
2019-01-27T03:30:15.827Z,29.28
2019-01-27T03:32:43.380Z,29.29
2019-01-27T03:35:10.931Z,29.22
2019-01-27T03:37:38.450Z,29.29
2019-01-27T03:40:07.567Z,29.35
2019-01-27T03:42:35.088Z,29.29
2019-01-27T03:45:02.621Z,29.26
2019-01-27T03:47:30.151Z,29.27
2019-01-27T03:49:57.670Z,29.25
2019-01-27T03:52:25.195Z,29.29
2019-01-27T03:54:52.695Z,29.36
2019-01-27T03:57:20.225Z,29.29
2019-01-27T03:59:47.761Z,29.31
2019-01-27T04:02:15.245Z,29.32
2019-01-27T04:04:42.765Z,29.36
2019-01-27T04:07:10.268Z,29.33
2019-01-27T04:09:37.796Z,29.35
2019-01-27T04:12:05.291Z,29.29
2019-01-27T04:14:32.822Z,29.35
2019-01-27T04:17:00.334Z,29.33
2019-01-27T04:19:27.840Z,29.28
2019-01-27T04:21:55.376Z,29.29
2019-01-27T04:24:22.887Z,29.25
2019-01-27T04:26:50.411Z,29.29
2019-01-27T04:29:17.999Z,29.29
2019-01-27T04:31:45.515Z,29.31
2019-01-27T04:34:13.009Z,29.29
2019-01-27T04:36:40.515Z,29.36
2019-01-27T04:39:08.201Z,29.28
2019-01-27T04:41:35.715Z,29.30
2019-01-27T04:44:03.227Z,29.30
2019-01-27T04:46:30.733Z,29.37
2019-01-27T04:48:58.253Z,29.31
2019-01-27T04:51:25.749Z,29.27
2019-01-27T04:53:53.367Z,29.31
2019-01-27T04:56:20.857Z,29.43
2019-01-27T04:58:48.396Z,29.35
2019-01-27T05:01:15.923Z,29.34
2019-01-27T05:03:50.753Z,29.37
2019-01-27T05:06:18.271Z,29.43
2019-01-27T05:08:45.765Z,29.43
2019-01-27T05:11:13.257Z,29.41
2019-01-27T05:13:40.769Z,29.40
2019-01-27T05:16:08.295Z,29.42
2019-01-27T05:18:35.796Z,29.45
2019-01-27T05:21:03.325Z,29.43
2019-01-27T05:23:30.816Z,29.50
2019-01-27T05:25:58.338Z,29.46
2019-01-27T05:28:25.839Z,29.43
2019-01-27T05:30:53.374Z,29.42
2019-01-27T05:33:20.914Z,29.43
2019-01-27T05:35:48.506Z,29.43
2019-01-27T05:38:15.998Z,29.49
2019-01-27T05:40:43.530Z,29.52
2019-01-27T05:43:11.045Z,29.47
2019-01-27T05:45:38.555Z,29.50
2019-01-27T05:48:06.127Z,29.54
2019-01-27T05:50:33.655Z,29.57
2019-01-27T05:53:01.149Z,29.51
2019-01-27T05:55:28.667Z,29.52
2019-01-27T05:57:56.199Z,29.52
2019-01-27T06:00:40.629Z,29.57
2019-01-27T06:03:08.159Z,29.55
2019-01-27T06:05:35.680Z,29.54
2019-01-27T06:08:03.229Z,29.60
2019-01-27T06:10:30.709Z,29.55
2019-01-27T06:12:58.221Z,29.61
2019-01-27T06:15:25.726Z,29.58
2019-01-27T06:17:53.215Z,29.67
2019-01-27T06:20:20.742Z,29.66
2019-01-27T06:22:48.275Z,29.68
2019-01-27T06:25:16.480Z,29.68
2019-01-27T06:27:44.133Z,29.71
2019-01-27T06:30:18.920Z,29.66
2019-01-27T06:32:48.050Z,29.66
2019-01-27T06:35:15.561Z,29.70
2019-01-27T06:37:43.088Z,29.74
2019-01-27T06:40:10.580Z,29.74
2019-01-27T06:42:38.109Z,29.76
2019-01-27T06:45:05.986Z,29.68
2019-01-27T06:47:33.503Z,29.68
2019-01-27T06:50:00.989Z,29.73
2019-01-27T06:52:28.511Z,29.77
2019-01-27T06:54:56.206Z,29.77
2019-01-27T06:57:23.730Z,29.76
2019-01-27T06:59:52.883Z,29.73
2019-01-27T07:02:22.025Z,29.78
2019-01-27T07:04:51.211Z,29.81
2019-01-27T07:07:20.357Z,29.80
2019-01-27T07:10:01.496Z,29.86
2019-01-27T07:12:39.839Z,29.76
2019-01-27T07:15:19.399Z,29.79
2019-01-27T07:17:51.320Z,29.78
2019-01-27T07:20:32.335Z,29.83
2019-01-27T07:23:04.497Z,29.77
2019-01-27T07:25:48.935Z,29.86
2019-01-27T07:28:20.791Z,29.84
2019-01-27T07:31:06.273Z,29.87
2019-01-27T07:33:44.388Z,29.89
2019-01-27T07:36:13.545Z,29.90
2019-01-27T07:38:42.687Z,29.79
2019-01-27T07:41:14.732Z,29.87
2019-01-27T07:43:46.576Z,29.92
2019-01-27T07:46:15.712Z,29.83
2019-01-27T07:48:50.949Z,29.92
2019-01-27T07:51:20.096Z,29.87
2019-01-27T07:54:01.306Z,29.88
2019-01-27T07:56:30.467Z,29.92
2019-01-27T07:59:08.584Z,29.98
2019-01-27T08:01:40.654Z,29.92
2019-01-27T08:04:09.801Z,29.99
2019-01-27T08:06:44.802Z,29.94
2019-01-27T08:09:16.613Z,29.96
2019-01-27T08:11:57.740Z,29.96
2019-01-27T08:14:26.892Z,29.97
2019-01-27T08:16:56.051Z,29.96
2019-01-27T08:19:25.222Z,30.00
2019-01-27T08:22:00.371Z,30.01
2019-01-27T08:24:35.575Z,29.97
2019-01-27T08:27:16.777Z,30.01
2019-01-27T08:29:54.452Z,30.02
2019-01-27T08:32:39.824Z,30.01
2019-01-27T08:35:09.867Z,30.09
2019-01-27T08:37:48.156Z,30.10
2019-01-27T08:40:17.696Z,30.01
2019-01-27T08:42:58.840Z,30.16
2019-01-27T08:45:27.972Z,30.08
2019-01-27T08:47:55.500Z,30.16
2019-01-27T08:50:23.012Z,30.17
2019-01-27T08:52:50.506Z,30.18
2019-01-27T08:55:18.019Z,30.11
2019-01-27T08:57:45.537Z,30.29
2019-01-27T09:00:14.646Z,30.17
2019-01-27T09:02:46.704Z,30.18
2019-01-27T09:05:15.839Z,30.16
2019-01-27T09:07:50.766Z,30.19
2019-01-27T09:10:29.006Z,30.33
2019-01-27T09:13:11.171Z,30.31
2019-01-27T09:15:54.248Z,30.29
2019-01-27T09:18:26.090Z,30.26
2019-01-27T09:21:01.012Z,30.32
2019-01-27T09:23:30.164Z,30.31
2019-01-27T09:25:59.293Z,30.40
2019-01-27T09:28:28.462Z,30.39
2019-01-27T09:30:57.599Z,30.49
2019-01-27T09:33:32.679Z,30.35
2019-01-27T09:36:04.891Z,30.43
2019-01-27T09:38:34.049Z,30.41
2019-01-27T09:41:11.959Z,30.35
2019-01-27T09:43:41.119Z,30.41
2019-01-27T09:46:13.368Z,30.35
2019-01-27T09:48:45.185Z,30.35
2019-01-27T09:51:14.322Z,30.40
2019-01-27T09:53:49.372Z,30.43
2019-01-27T09:56:21.233Z,30.40
2019-01-27T09:58:50.388Z,30.38
2019-01-27T10:01:25.152Z,30.46
2019-01-27T10:04:03.178Z,30.44
2019-01-27T10:06:32.332Z,30.47
2019-01-27T10:09:10.671Z,30.55
2019-01-27T10:11:56.010Z,30.46
2019-01-27T10:14:25.166Z,30.45
2019-01-27T10:17:03.330Z,30.44
2019-01-27T10:19:32.530Z,30.50
2019-01-27T10:22:01.681Z,30.46
2019-01-27T10:24:36.873Z,30.54
2019-01-27T10:27:12.194Z,30.54
2019-01-27T10:29:53.660Z,30.50
2019-01-27T10:32:25.506Z,30.49
2019-01-27T10:34:54.683Z,30.49
2019-01-27T10:37:39.930Z,30.50
2019-01-27T10:40:10.772Z,30.56
2019-01-27T10:42:40.102Z,30.58
2019-01-27T10:45:09.944Z,30.56
2019-01-27T10:47:48.362Z,30.50
2019-01-27T10:50:17.526Z,30.47
2019-01-27T10:52:55.876Z,30.49
2019-01-27T10:55:31.219Z,30.48
2019-01-27T10:58:12.626Z,30.44
2019-01-27T11:01:00.340Z,30.42
2019-01-27T11:03:41.486Z,30.51
2019-01-27T11:06:22.553Z,30.47
2019-01-27T11:08:57.530Z,30.50
2019-01-27T11:11:29.643Z,30.41
2019-01-27T11:14:01.833Z,30.42
2019-01-27T11:16:31.012Z,30.52
2019-01-27T11:19:00.160Z,30.51
2019-01-27T11:21:32.098Z,30.45
2019-01-27T11:24:07.229Z,30.47
2019-01-27T11:26:36.398Z,30.45
2019-01-27T11:29:11.416Z,30.49
2019-01-27T11:31:43.726Z,30.45
2019-01-27T11:34:15.551Z,30.49
2019-01-27T11:36:47.433Z,30.45
2019-01-27T11:39:28.701Z,30.55
2019-01-27T11:41:57.823Z,30.49
2019-01-27T11:44:43.355Z,30.48
2019-01-27T11:47:12.537Z,30.48
2019-01-27T11:49:41.691Z,30.59
2019-01-27T11:52:15.480Z,30.51
2019-01-27T11:54:38.645Z,30.50
2019-01-27T11:57:06.148Z,30.50
2019-01-27T11:59:33.673Z,30.57
2019-01-27T12:02:01.203Z,30.65
2019-01-27T12:04:28.700Z,30.66
2019-01-27T12:06:56.240Z,30.55
2019-01-27T12:09:23.739Z,30.51
2019-01-27T12:11:51.241Z,30.53
2019-01-27T12:14:18.765Z,30.58
2019-01-27T12:16:46.270Z,30.64
2019-01-27T12:19:13.793Z,30.57
2019-01-27T12:21:41.307Z,30.57
2019-01-27T12:24:08.839Z,30.61
2019-01-27T12:26:36.387Z,30.59
2019-01-27T12:29:04.019Z,30.56
2019-01-27T12:31:31.519Z,30.62
2019-01-27T12:33:59.051Z,30.56
2019-01-27T12:36:26.553Z,30.58
2019-01-27T12:38:54.057Z,30.59
2019-01-27T12:41:21.585Z,30.64
2019-01-27T12:43:49.083Z,30.65
2019-01-27T12:46:16.614Z,30.60
2019-01-27T12:48:44.127Z,30.60
2019-01-27T12:51:11.723Z,30.56
2019-01-27T12:53:39.232Z,30.66
2019-01-27T12:56:06.778Z,30.56
2019-01-27T12:58:34.290Z,30.65
2019-01-27T13:01:01.781Z,30.62
2019-01-27T13:03:29.302Z,30.59
2019-01-27T13:05:56.841Z,30.58
2019-01-27T13:08:25.894Z,30.51
2019-01-27T13:10:53.670Z,30.51
2019-01-27T13:13:21.191Z,30.45
2019-01-27T13:15:48.687Z,30.45
2019-01-27T13:18:16.187Z,30.48
2019-01-27T13:20:43.740Z,30.46
2019-01-27T13:23:11.249Z,30.42
2019-01-27T13:25:38.747Z,30.40
2019-01-27T13:28:06.283Z,30.43
2019-01-27T13:30:33.800Z,30.38
2019-01-27T13:33:03.246Z,30.34
2019-01-27T13:35:30.573Z,30.41
2019-01-27T13:37:58.099Z,30.37
2019-01-27T13:40:25.601Z,30.36
2019-01-27T13:42:53.141Z,30.33
2019-01-27T13:45:21.736Z,30.28
2019-01-27T13:47:49.261Z,30.21
2019-01-27T13:50:17.036Z,30.24
2019-01-27T13:52:44.572Z,30.26
2019-01-27T13:55:13.731Z,30.26
2019-01-27T13:57:41.276Z,30.26
2019-01-27T14:00:10.398Z,30.20
2019-01-27T14:02:37.919Z,30.14
2019-01-27T14:05:06.898Z,30.12
2019-01-27T14:07:34.406Z,30.10
2019-01-27T14:10:01.919Z,30.06
2019-01-27T14:12:29.487Z,30.09
2019-01-27T14:14:57.087Z,30.14
2019-01-27T14:17:24.579Z,30.08
2019-01-27T14:19:52.096Z,30.09
2019-01-27T14:22:19.617Z,30.12
2019-01-27T14:24:47.131Z,30.09
2019-01-27T14:27:14.621Z,30.09
2019-01-27T14:29:42.145Z,30.11
2019-01-27T14:32:09.726Z,30.21
2019-01-27T14:34:37.250Z,30.19
2019-01-27T14:37:04.768Z,30.14
2019-01-27T14:39:32.292Z,30.16
2019-01-27T14:41:59.806Z,30.20
2019-01-27T14:44:27.318Z,30.25
2019-01-27T14:46:54.847Z,30.24
2019-01-27T14:49:22.373Z,30.22
2019-01-27T14:51:49.905Z,30.27
2019-01-27T14:54:17.429Z,30.22
2019-01-27T14:56:44.931Z,30.22
2019-01-27T14:59:12.484Z,30.25
2019-01-27T15:01:39.986Z,30.23
2019-01-27T15:04:07.672Z,30.24
2019-01-27T15:06:35.228Z,30.25
2019-01-27T15:09:03.203Z,30.29
2019-01-27T15:11:30.713Z,30.31
2019-01-27T15:13:58.238Z,30.32
2019-01-27T15:16:25.765Z,30.30
2019-01-27T15:18:53.286Z,30.31
2019-01-27T15:21:20.814Z,30.29
2019-01-27T15:23:48.318Z,30.33
2019-01-27T15:26:15.843Z,30.29
2019-01-27T15:28:43.338Z,30.32
2019-01-27T15:31:10.858Z,30.34
2019-01-27T15:33:38.395Z,30.29
2019-01-27T15:36:05.944Z,30.26
2019-01-27T15:38:33.448Z,30.32
2019-01-27T15:41:00.976Z,30.29
2019-01-27T15:43:28.499Z,30.26
2019-01-27T15:45:56.016Z,30.25
2019-01-27T15:48:23.525Z,30.26
2019-01-27T15:50:51.033Z,30.27
2019-01-27T15:53:18.552Z,30.31
2019-01-27T15:55:46.074Z,30.25
2019-01-27T15:58:13.609Z,30.28
2019-01-27T16:00:41.096Z,30.31
2019-01-27T16:03:08.639Z,30.29
2019-01-27T16:05:36.129Z,30.28
2019-01-27T16:08:03.802Z,30.28
2019-01-27T16:10:31.323Z,30.27
2019-01-27T16:12:58.835Z,30.25
2019-01-27T16:15:27.353Z,30.25
2019-01-27T16:17:54.854Z,30.27
2019-01-27T16:20:22.350Z,30.28
2019-01-27T16:22:54.492Z,30.30
2019-01-27T16:25:22.027Z,30.30
2019-01-27T16:27:49.512Z,30.29
2019-01-27T16:30:19.455Z,30.29
2019-01-27T16:32:46.936Z,30.28
2019-01-27T16:35:14.443Z,30.28
2019-01-27T16:37:41.963Z,30.28
2019-01-27T16:40:11.251Z,30.32
2019-01-27T16:42:38.761Z,30.31
2019-01-27T16:45:07.892Z,30.33
2019-01-27T16:47:35.417Z,30.27
2019-01-27T16:50:02.931Z,30.28
2019-01-27T16:52:30.446Z,30.25
2019-01-27T16:54:57.954Z,30.27
2019-01-27T16:57:25.516Z,30.23
2019-01-27T16:59:53.007Z,30.25
2019-01-27T17:02:20.502Z,30.20
2019-01-27T17:04:48.012Z,30.16
2019-01-27T17:07:15.514Z,30.22
2019-01-27T17:09:43.048Z,30.23
2019-01-27T17:12:10.556Z,30.23
2019-01-27T17:14:38.086Z,30.23
2019-01-27T17:17:05.601Z,30.22
2019-01-27T17:19:33.122Z,30.25
2019-01-27T17:22:00.672Z,30.25
2019-01-27T17:24:28.295Z,30.27
2019-01-27T17:26:55.965Z,30.25
2019-01-27T17:29:23.562Z,30.31
2019-01-27T17:31:51.060Z,30.28
2019-01-27T17:34:18.584Z,30.30
2019-01-27T17:36:46.094Z,30.25
2019-01-27T17:39:13.668Z,30.29
2019-01-27T17:41:41.169Z,30.25
2019-01-27T17:44:08.696Z,30.30
2019-01-27T17:46:36.191Z,30.32
2019-01-27T17:49:03.809Z,30.34
2019-01-27T17:51:31.296Z,30.34
2019-01-27T17:53:59.224Z,30.30
2019-01-27T17:56:26.787Z,30.30
2019-01-27T17:58:58.731Z,30.33
2019-01-27T18:01:44.504Z,30.25
2019-01-27T18:04:13.652Z,30.32
2019-01-27T18:06:45.908Z,30.29
2019-01-27T18:09:15.061Z,30.34
2019-01-27T18:11:56.431Z,30.28
2019-01-27T18:14:25.551Z,30.31
2019-01-27T18:16:53.100Z,30.25
2019-01-27T18:19:20.615Z,30.28
2019-01-27T18:21:48.117Z,30.28
2019-01-27T18:24:15.700Z,30.26
2019-01-27T18:26:43.285Z,30.33
2019-01-27T18:29:10.880Z,30.30
2019-01-27T18:31:38.435Z,30.29
2019-01-27T18:34:05.952Z,30.25
2019-01-27T18:36:33.442Z,30.28
2019-01-27T18:39:00.991Z,30.20
2019-01-27T18:41:28.490Z,30.21
2019-01-27T18:43:56.000Z,30.25
2019-01-27T18:46:23.526Z,30.26
2019-01-27T18:48:51.049Z,30.27
2019-01-27T18:51:18.623Z,30.24
2019-01-27T18:53:47.779Z,30.22
2019-01-27T18:56:16.942Z,30.16
2019-01-27T18:58:46.112Z,30.19
2019-01-27T19:01:17.972Z,30.20
2019-01-27T19:03:53.113Z,30.16
2019-01-27T19:06:27.878Z,30.11
2019-01-27T19:08:57.049Z,30.15
2019-01-27T19:11:26.187Z,30.12
2019-01-27T19:14:01.372Z,30.12
2019-01-27T19:16:30.526Z,30.10
2019-01-27T19:18:59.704Z,30.10
2019-01-27T19:21:34.616Z,30.08
2019-01-27T19:24:15.737Z,30.05
2019-01-27T19:27:01.361Z,30.08
2019-01-27T19:29:48.868Z,30.07
2019-01-27T19:32:23.891Z,30.11
2019-01-27T19:34:55.510Z,30.08
2019-01-27T19:37:27.662Z,30.03
2019-01-27T19:40:02.667Z,30.08
2019-01-27T19:42:37.509Z,30.05
2019-01-27T19:45:08.554Z,30.03
2019-01-27T19:47:46.594Z,30.01
2019-01-27T19:50:18.739Z,30.00
2019-01-27T19:52:47.876Z,30.00
2019-01-27T19:55:19.985Z,29.99
2019-01-27T19:58:05.473Z,30.02
2019-01-27T20:00:37.345Z,29.98
2019-01-27T20:03:15.734Z,29.98
2019-01-27T20:05:44.905Z,29.95
2019-01-27T20:08:16.972Z,30.01
2019-01-27T20:10:46.101Z,29.99
2019-01-27T20:13:18.006Z,29.95
2019-01-27T20:15:52.943Z,29.99
2019-01-27T20:18:24.788Z,29.96
2019-01-27T20:20:56.632Z,29.93
2019-01-27T20:23:25.852Z,29.99
2019-01-27T20:25:57.906Z,29.98
2019-01-27T20:28:27.059Z,29.97
2019-01-27T20:30:59.125Z,29.97
2019-01-27T20:33:28.249Z,29.95
2019-01-27T20:35:57.405Z,29.93
2019-01-27T20:38:26.570Z,29.96
2019-01-27T20:41:11.927Z,29.89
2019-01-27T20:43:50.038Z,29.92
2019-01-27T20:46:19.193Z,29.93
2019-01-27T20:48:51.331Z,29.91
2019-01-27T20:51:23.456Z,29.89
2019-01-27T20:54:09.056Z,29.93
2019-01-27T20:56:38.207Z,29.90
2019-01-27T20:59:19.250Z,29.90
2019-01-27T21:01:50.868Z,29.88
2019-01-27T21:04:22.739Z,29.89
2019-01-27T21:06:51.914Z,29.89
2019-01-27T21:09:23.795Z,29.87
2019-01-27T21:12:09.278Z,29.88
2019-01-27T21:14:38.452Z,29.82
2019-01-27T21:17:10.102Z,29.84
2019-01-27T21:19:39.266Z,29.84
2019-01-27T21:22:06.812Z,29.85
2019-01-27T21:24:34.346Z,29.94
2019-01-27T21:27:06.298Z,29.91
2019-01-27T21:29:31.083Z,29.92
2019-01-27T21:31:58.592Z,29.91
2019-01-27T21:34:26.114Z,29.91
2019-01-27T21:36:53.649Z,29.86
2019-01-27T21:39:21.148Z,29.86
2019-01-27T21:41:48.645Z,29.84
2019-01-27T21:44:16.168Z,29.86
2019-01-27T21:46:43.662Z,29.84
2019-01-27T21:49:11.170Z,29.90
2019-01-27T21:51:38.690Z,29.85
2019-01-27T21:54:06.223Z,29.85
2019-01-27T21:56:33.735Z,29.86
2019-01-27T21:59:01.294Z,29.85
2019-01-27T22:01:28.796Z,29.88
2019-01-27T22:03:56.296Z,29.84
2019-01-27T22:06:23.829Z,29.86
2019-01-27T22:08:51.351Z,29.94
2019-01-27T22:11:18.887Z,29.93
2019-01-27T22:13:46.419Z,29.91
2019-01-27T22:16:13.917Z,29.85
2019-01-27T22:18:41.437Z,29.86
2019-01-27T22:21:08.933Z,29.88
2019-01-27T22:23:36.443Z,29.83
2019-01-27T22:26:04.039Z,29.81
2019-01-27T22:28:31.539Z,29.83
2019-01-27T22:30:59.242Z,29.86
2019-01-27T22:33:26.743Z,29.85
2019-01-27T22:35:54.274Z,29.82
2019-01-27T22:38:21.796Z,29.81
2019-01-27T22:40:49.283Z,29.84
2019-01-27T22:43:16.812Z,29.79
2019-01-27T22:45:44.329Z,29.81
2019-01-27T22:48:11.825Z,29.80
2019-01-27T22:50:39.339Z,29.79
2019-01-27T22:53:06.878Z,29.83
2019-01-27T22:55:34.462Z,29.83
2019-01-27T22:58:01.983Z,29.82
2019-01-27T23:00:35.242Z,29.85
2019-01-27T23:03:02.759Z,29.84
2019-01-27T23:05:30.268Z,29.78
2019-01-27T23:07:57.788Z,29.83
2019-01-27T23:10:25.389Z,29.82
2019-01-27T23:12:52.894Z,29.84
2019-01-27T23:15:20.428Z,29.77
2019-01-27T23:17:47.918Z,29.79
2019-01-27T23:20:15.436Z,29.79
2019-01-27T23:22:42.960Z,29.88
2019-01-27T23:25:10.475Z,29.79
2019-01-27T23:27:37.982Z,29.79
2019-01-27T23:30:05.954Z,29.85
2019-01-27T23:32:33.484Z,29.86
2019-01-27T23:35:00.985Z,29.83
2019-01-27T23:37:28.476Z,29.82
2019-01-27T23:39:56.001Z,29.83
2019-01-27T23:42:23.511Z,29.79
2019-01-27T23:44:51.005Z,29.77
2019-01-27T23:47:18.500Z,29.77
2019-01-27T23:49:46.017Z,29.79
2019-01-27T23:52:13.523Z,29.77
2019-01-27T23:54:41.050Z,29.78
2019-01-27T23:57:08.540Z,29.80
2019-01-27T23:59:36.127Z,29.78
